createdAt,value
2022-09-12T00:01:16.743Z,7.10
2022-09-12T00:03:45.568Z,5.63
2022-09-12T00:06:18.171Z,5.60
2022-09-12T00:08:50.376Z,7.05
2022-09-12T00:11:18.951Z,6.68
2022-09-12T00:13:47.538Z,8.60
2022-09-12T00:16:18.137Z,8.02
2022-09-12T00:18:47.741Z,8.18
2022-09-12T00:21:16.597Z,7.43
2022-09-12T00:23:44.987Z,7.22
2022-09-12T00:26:13.553Z,6.80
2022-09-12T00:28:42.764Z,5.88
2022-09-12T00:31:12.200Z,6.70
2022-09-12T00:33:42.413Z,7.50
2022-09-12T00:36:11.872Z,6.45
2022-09-12T00:38:42.157Z,7.32
2022-09-12T00:41:13.353Z,6.38
2022-09-12T00:43:43.328Z,5.32
2022-09-12T00:46:15.778Z,7.35
2022-09-12T00:48:48.041Z,6.75
2022-09-12T00:51:17.145Z,6.57
2022-09-12T00:53:46.397Z,6.72
2022-09-12T00:56:15.882Z,6.55
2022-09-12T00:58:46.178Z,6.53
2022-09-12T01:01:14.824Z,7.18
2022-09-12T01:03:44.747Z,6.28
2022-09-12T01:06:15.967Z,7.70
2022-09-12T01:08:45.183Z,7.50
2022-09-12T01:11:14.193Z,5.90
2022-09-12T01:13:42.606Z,5.93
2022-09-12T01:16:11.059Z,7.57
2022-09-12T01:18:46.146Z,5.95
2022-09-12T01:21:22.232Z,6.43
2022-09-12T01:24:20.818Z,4.93
2022-09-12T01:26:57.141Z,7.38
2022-09-12T01:29:33.460Z,5.30
2022-09-12T01:32:08.627Z,6.88
2022-09-12T01:34:41.711Z,5.45
2022-09-12T01:37:13.717Z,4.90
2022-09-12T01:39:46.909Z,4.93
2022-09-12T01:42:18.084Z,5.57
2022-09-12T01:44:48.662Z,6.72
2022-09-12T01:47:22.415Z,4.93
2022-09-12T01:49:54.732Z,5.25
2022-09-12T01:52:24.773Z,6.57
2022-09-12T01:54:57.179Z,5.35
2022-09-12T01:57:27.094Z,6.53
2022-09-12T01:59:57.556Z,7.47
2022-09-12T02:02:30.851Z,7.78
2022-09-12T02:05:02.540Z,4.82
2022-09-12T02:07:33.409Z,6.70
2022-09-12T02:10:04.827Z,5.88
2022-09-12T02:12:36.368Z,5.45
2022-09-12T02:15:06.621Z,5.88
2022-09-12T02:17:39.228Z,4.30
2022-09-12T02:20:14.632Z,5.63
2022-09-12T02:22:50.362Z,5.75
2022-09-12T02:25:20.129Z,6.53
2022-09-12T02:27:50.608Z,5.55
2022-09-12T02:30:19.741Z,4.05
2022-09-12T02:32:56.462Z,4.85
2022-09-12T02:35:27.733Z,5.32
2022-09-12T02:37:59.149Z,7.25
2022-09-12T02:40:27.811Z,5.38
2022-09-12T02:42:56.320Z,4.43
2022-09-12T02:45:24.797Z,3.50
2022-09-12T02:47:56.907Z,5.40
2022-09-12T02:50:25.644Z,4.63
2022-09-12T02:52:59.753Z,4.63
2022-09-12T02:55:30.421Z,5.05
2022-09-12T02:57:58.860Z,6.03
2022-09-12T03:00:27.670Z,6.20
2022-09-12T03:03:02.760Z,3.97
2022-09-12T03:05:33.444Z,6.80
2022-09-12T03:08:22.493Z,4.72
2022-09-12T03:11:15.957Z,4.47
2022-09-12T03:13:48.253Z,4.75
2022-09-12T03:16:18.964Z,5.32
2022-09-12T03:18:52.749Z,4.53
2022-09-12T03:21:24.274Z,4.97
2022-09-12T03:23:58.348Z,5.38
2022-09-12T03:26:29.709Z,4.72
2022-09-12T03:28:59.403Z,4.53
2022-09-12T03:31:27.892Z,4.53
2022-09-12T03:33:57.673Z,4.70
2022-09-12T03:36:27.163Z,4.82
2022-09-12T03:38:55.653Z,5.93
2022-09-12T03:41:24.239Z,4.85
2022-09-12T03:43:52.743Z,6.25
2022-09-12T03:46:21.137Z,4.93
2022-09-12T03:48:50.812Z,6.80
2022-09-12T03:51:20.897Z,5.07
2022-09-12T03:53:49.387Z,4.82
2022-09-12T03:56:17.981Z,4.60
2022-09-12T03:58:46.799Z,3.60
2022-09-12T04:01:16.416Z,4.35
2022-09-12T04:03:45.016Z,7.20
2022-09-12T04:06:14.821Z,6.38
2022-09-12T04:08:45.395Z,6.45
2022-09-12T04:11:14.721Z,4.05
2022-09-12T04:13:43.822Z,4.97
2022-09-12T04:16:13.106Z,5.10
2022-09-12T04:18:41.917Z,5.05
2022-09-12T04:21:11.548Z,4.05
2022-09-12T04:23:40.023Z,3.55
2022-09-12T04:26:09.953Z,5.43
2022-09-12T04:28:39.199Z,4.82
2022-09-12T04:31:09.005Z,3.53
2022-09-12T04:33:37.583Z,5.68
2022-09-12T04:36:07.435Z,7.50
2022-09-12T04:38:36.812Z,4.40
2022-09-12T04:41:13.348Z,6.05
2022-09-12T04:43:41.948Z,7.22
2022-09-12T04:46:11.567Z,8.30
2022-09-12T04:48:40.279Z,6.32
2022-09-12T04:51:09.213Z,5.70
2022-09-12T04:53:39.122Z,5.53
2022-09-12T04:56:08.309Z,4.22
2022-09-12T04:58:38.656Z,6.25
2022-09-12T05:01:08.140Z,7.03
2022-09-12T05:03:39.000Z,5.70
2022-09-12T05:06:08.650Z,4.15
2022-09-12T05:08:37.144Z,5.30
2022-09-12T05:11:06.172Z,5.65
2022-09-12T05:13:35.001Z,5.53
2022-09-12T05:16:05.607Z,6.22
2022-09-12T05:18:34.348Z,5.55
2022-09-12T05:21:03.837Z,5.90
2022-09-12T05:23:32.612Z,6.28
2022-09-12T05:26:01.700Z,9.07
2022-09-12T05:28:31.064Z,7.65
2022-09-12T05:31:03.091Z,6.38
2022-09-12T05:33:33.483Z,5.22
2022-09-12T05:36:02.081Z,5.53
2022-09-12T05:38:30.685Z,5.50
2022-09-12T05:41:04.800Z,5.60
2022-09-12T05:43:33.413Z,4.70
2022-09-12T05:46:05.014Z,9.77
2022-09-12T05:48:35.313Z,4.57
2022-09-12T05:51:04.176Z,6.93
2022-09-12T05:53:32.959Z,9.63
2022-09-12T05:56:05.151Z,9.43
2022-09-12T05:58:33.597Z,9.30
2022-09-12T06:01:07.854Z,7.80
2022-09-12T06:03:39.133Z,4.65
2022-09-12T06:06:07.985Z,6.78
2022-09-12T06:08:37.515Z,6.53
2022-09-12T06:11:07.114Z,8.65
2022-09-12T06:13:36.930Z,6.43
2022-09-12T06:16:06.265Z,9.57
2022-09-12T06:18:35.635Z,8.00
2022-09-12T06:21:06.036Z,5.13
2022-09-12T06:23:34.496Z,9.15
2022-09-12T06:26:03.446Z,9.27
2022-09-12T06:28:32.197Z,6.95
2022-09-12T06:31:04.564Z,7.32
2022-09-12T06:33:33.833Z,13.23
2022-09-12T06:36:12.229Z,8.32
2022-09-12T06:38:41.486Z,7.05
2022-09-12T06:41:11.454Z,8.18
2022-09-12T06:43:40.256Z,6.30
2022-09-12T06:46:09.272Z,7.65
2022-09-12T06:48:41.736Z,5.70
2022-09-12T06:51:13.575Z,7.82
2022-09-12T06:53:42.442Z,4.40
2022-09-12T06:56:12.294Z,5.18
2022-09-12T06:58:41.309Z,6.53
2022-09-12T07:01:11.076Z,5.55
2022-09-12T07:03:40.344Z,8.20
2022-09-12T07:06:09.839Z,4.50
2022-09-12T07:08:41.029Z,4.22
2022-09-12T07:11:13.660Z,4.65
2022-09-12T07:13:42.309Z,9.20
2022-09-12T07:16:13.017Z,8.80
2022-09-12T07:18:46.414Z,3.38
2022-09-12T07:21:15.513Z,5.75
2022-09-12T07:23:45.711Z,3.50
2022-09-12T07:26:15.480Z,3.55
2022-09-12T07:28:45.483Z,3.35
2022-09-12T07:31:15.542Z,5.40
2022-09-12T07:33:44.515Z,4.15
2022-09-12T07:36:13.987Z,3.05
2022-09-12T07:38:42.850Z,3.17
2022-09-12T07:41:15.876Z,5.75
2022-09-12T07:43:44.301Z,2.45
2022-09-12T07:46:13.097Z,3.90
2022-09-12T07:48:41.883Z,3.70
2022-09-12T07:51:10.952Z,2.83
2022-09-12T07:53:40.519Z,3.60
2022-09-12T07:56:10.318Z,3.30
2022-09-12T07:58:41.916Z,5.20
2022-09-12T08:01:11.233Z,3.08
2022-09-12T08:03:40.080Z,4.28
2022-09-12T08:06:09.480Z,2.70
2022-09-12T08:08:38.320Z,4.32
2022-09-12T08:11:07.657Z,3.50
2022-09-12T08:13:36.658Z,3.55
2022-09-12T08:16:07.396Z,3.17
2022-09-12T08:18:37.151Z,1.83
2022-09-12T08:21:06.581Z,1.90
2022-09-12T08:23:35.371Z,2.50
2022-09-12T08:26:06.318Z,2.10
2022-09-12T08:28:36.320Z,7.22
2022-09-12T08:31:07.055Z,1.73
2022-09-12T08:33:35.739Z,2.65
2022-09-12T08:36:05.401Z,2.75
2022-09-12T08:38:34.315Z,6.13
2022-09-12T08:41:05.700Z,2.13
2022-09-12T08:43:42.329Z,2.67
2022-09-12T08:46:16.229Z,3.28
2022-09-12T08:48:45.408Z,2.55
2022-09-12T08:51:16.042Z,2.58
2022-09-12T08:53:46.301Z,1.50
2022-09-12T08:56:14.885Z,2.25
2022-09-12T08:58:44.368Z,2.00
2022-09-12T09:01:20.897Z,1.80
2022-09-12T09:04:03.157Z,2.53
2022-09-12T09:06:37.338Z,2.47
2022-09-12T09:09:07.751Z,3.78
2022-09-12T09:11:45.910Z,1.50
2022-09-12T09:14:39.740Z,2.10
2022-09-12T09:17:12.518Z,1.63
2022-09-12T09:19:47.703Z,2.67
2022-09-12T09:22:20.789Z,3.65
2022-09-12T09:24:51.004Z,4.30
2022-09-12T09:27:39.812Z,4.30
2022-09-12T09:30:11.749Z,4.15
2022-09-12T09:32:42.777Z,3.63
2022-09-12T09:35:17.276Z,2.03
2022-09-12T09:37:55.607Z,3.75
2022-09-12T09:40:28.905Z,4.13
2022-09-12T09:43:00.169Z,2.75
2022-09-12T09:45:29.735Z,2.75
2022-09-12T09:48:01.683Z,1.90
2022-09-12T09:50:30.926Z,1.85
2022-09-12T09:53:02.307Z,3.90
2022-09-12T09:55:34.564Z,1.48
2022-09-12T09:58:04.128Z,2.63
2022-09-12T10:00:33.677Z,2.80
2022-09-12T10:03:16.964Z,4.10
2022-09-12T10:05:50.769Z,4.35
2022-09-12T10:08:23.164Z,3.63
2022-09-12T10:10:55.257Z,2.08
2022-09-12T10:13:26.355Z,4.57
2022-09-12T10:15:59.251Z,3.88
2022-09-12T10:18:35.725Z,3.72
2022-09-12T10:21:14.470Z,1.67
2022-09-12T10:23:44.146Z,2.97
2022-09-12T10:26:13.853Z,3.45
2022-09-12T10:28:43.409Z,4.05
2022-09-12T10:31:15.589Z,1.92
2022-09-12T10:33:47.187Z,1.98
2022-09-12T10:36:17.577Z,1.55
2022-09-12T10:38:51.060Z,2.42
2022-09-12T10:41:19.909Z,2.33
2022-09-12T10:43:48.527Z,3.75
2022-09-12T10:46:25.205Z,2.28
2022-09-12T10:48:54.510Z,1.90
2022-09-12T10:51:30.606Z,2.05
2022-09-12T10:54:00.453Z,1.80
2022-09-12T10:56:30.884Z,2.38
2022-09-12T10:59:11.904Z,2.78
2022-09-12T11:01:44.819Z,1.70
2022-09-12T11:04:30.976Z,2.25
2022-09-12T11:07:05.300Z,2.92
2022-09-12T11:09:39.405Z,3.15
2022-09-12T11:12:12.152Z,2.85
2022-09-12T11:14:50.665Z,3.10
2022-09-12T11:17:25.324Z,1.75
2022-09-12T11:20:09.111Z,1.85
2022-09-12T11:22:45.433Z,2.95
2022-09-12T11:25:16.597Z,4.03
2022-09-12T11:27:53.524Z,1.70
2022-09-12T11:30:22.144Z,3.28
2022-09-12T11:33:11.577Z,2.47
2022-09-12T11:35:44.185Z,4.63
2022-09-12T11:38:27.449Z,3.53
2022-09-12T11:40:59.544Z,4.72
2022-09-12T11:43:33.306Z,3.00
2022-09-12T11:46:04.545Z,4.32
2022-09-12T11:48:37.304Z,3.35
2022-09-12T11:51:07.093Z,4.30
2022-09-12T11:53:38.806Z,3.40
2022-09-12T11:56:14.194Z,3.30
2022-09-12T11:58:44.022Z,4.18
2022-09-12T12:01:14.669Z,3.22
2022-09-12T12:03:44.405Z,2.90
2022-09-12T12:06:14.078Z,2.95
2022-09-12T12:08:43.412Z,2.10
2022-09-12T12:11:14.407Z,3.47
2022-09-12T12:13:47.382Z,2.78
2022-09-12T12:16:17.711Z,2.75
2022-09-12T12:18:46.474Z,4.03
2022-09-12T12:21:22.637Z,3.03
2022-09-12T12:24:21.044Z,1.85
2022-09-12T12:27:01.046Z,1.70
2022-09-12T12:29:45.265Z,2.25
2022-09-12T12:32:28.959Z,3.03
2022-09-12T12:35:04.493Z,2.47
2022-09-12T12:37:54.209Z,3.08
2022-09-12T12:40:25.186Z,2.30
2022-09-12T12:43:06.166Z,5.45
2022-09-12T12:45:48.292Z,3.05
2022-09-12T12:48:17.829Z,3.97
2022-09-12T12:50:47.281Z,3.53
2022-09-12T12:53:20.412Z,3.42
2022-09-12T12:55:50.945Z,6.50
2022-09-12T12:58:30.841Z,2.90
2022-09-12T13:01:08.971Z,4.38
2022-09-12T13:03:38.216Z,2.17
2022-09-12T13:06:08.631Z,10.52
2022-09-12T13:08:38.381Z,2.55
2022-09-12T13:11:09.506Z,3.20
2022-09-12T13:13:40.506Z,4.28
2022-09-12T13:16:11.231Z,2.42
2022-09-12T13:18:43.556Z,2.35
2022-09-12T13:21:13.700Z,4.43
2022-09-12T13:23:42.761Z,4.95
2022-09-12T13:26:13.238Z,3.75
2022-09-12T13:28:43.030Z,2.45
2022-09-12T13:31:16.569Z,3.05
2022-09-12T13:33:47.560Z,3.25
2022-09-12T13:36:30.813Z,3.88
2022-09-12T13:39:04.670Z,3.67
2022-09-12T13:41:47.618Z,3.35
2022-09-12T13:44:18.898Z,4.65
2022-09-12T13:46:47.664Z,5.65
2022-09-12T13:49:21.906Z,1.98
2022-09-12T13:51:55.994Z,2.85
2022-09-12T13:54:24.752Z,1.88
2022-09-12T13:56:53.260Z,1.83
2022-09-12T13:59:23.136Z,3.78
2022-09-12T14:01:51.782Z,1.70
2022-09-12T14:04:38.897Z,2.70
2022-09-12T14:07:13.177Z,3.15
2022-09-12T14:09:42.761Z,1.85
2022-09-12T14:12:18.413Z,2.45
2022-09-12T14:14:49.392Z,2.67
2022-09-12T14:17:21.841Z,3.60
2022-09-12T14:19:52.754Z,2.47
2022-09-12T14:22:21.279Z,3.00
2022-09-12T14:24:51.626Z,1.73
2022-09-12T14:27:23.325Z,2.95
2022-09-12T14:29:54.472Z,7.40
2022-09-12T14:32:25.445Z,4.50
2022-09-12T14:35:06.570Z,2.17
2022-09-12T14:37:35.525Z,3.50
2022-09-12T14:40:05.205Z,3.60
2022-09-12T14:42:34.269Z,1.92
2022-09-12T14:45:06.715Z,2.65
2022-09-12T14:47:38.653Z,2.95
2022-09-12T14:50:16.316Z,1.77
2022-09-12T14:52:44.946Z,3.65
2022-09-12T14:55:25.061Z,1.92
2022-09-12T14:58:08.329Z,2.95
2022-09-12T15:00:38.127Z,3.08
2022-09-12T15:03:22.321Z,2.80
2022-09-12T15:05:51.286Z,1.92
2022-09-12T15:08:19.701Z,3.30
2022-09-12T15:10:48.177Z,2.60
2022-09-12T15:13:20.869Z,1.92
2022-09-12T15:15:51.882Z,2.80
2022-09-12T15:18:21.093Z,2.78
2022-09-12T15:20:50.626Z,2.40
2022-09-12T15:23:38.163Z,5.18
2022-09-12T15:26:06.722Z,2.75
2022-09-12T15:28:35.280Z,2.35
2022-09-12T15:31:07.971Z,2.38
2022-09-12T15:33:36.468Z,2.70
2022-09-12T15:36:04.932Z,3.33
2022-09-12T15:38:33.344Z,2.10
2022-09-12T15:41:01.853Z,2.40
2022-09-12T15:43:30.255Z,1.95
2022-09-12T15:45:59.339Z,3.95
2022-09-12T15:48:29.219Z,2.65
2022-09-12T15:51:01.425Z,2.90
2022-09-12T15:53:30.937Z,2.17
2022-09-12T15:55:59.381Z,3.35
2022-09-12T15:58:27.770Z,4.47
2022-09-12T16:00:56.158Z,1.98
2022-09-12T16:03:25.866Z,3.17
2022-09-12T16:05:57.676Z,3.13
2022-09-12T16:08:26.181Z,2.15
2022-09-12T16:10:56.044Z,4.60
2022-09-12T16:13:24.524Z,2.60
2022-09-12T16:15:53.225Z,6.55
2022-09-12T16:18:21.815Z,4.85
2022-09-12T16:20:53.789Z,4.15
2022-09-12T16:23:23.788Z,3.72
2022-09-12T16:25:58.204Z,5.40
2022-09-12T16:28:26.701Z,10.73
2022-09-12T16:30:58.335Z,13.95
2022-09-12T16:33:27.046Z,6.57
2022-09-12T16:35:55.836Z,3.42
2022-09-12T16:38:25.736Z,4.43
2022-09-12T16:40:54.183Z,2.13
2022-09-12T16:43:22.685Z,4.13
2022-09-12T16:45:51.081Z,5.95
2022-09-12T16:48:19.472Z,1.70
2022-09-12T16:50:57.550Z,2.65
2022-09-12T16:53:27.355Z,2.58
2022-09-12T16:55:55.759Z,2.95
2022-09-12T16:58:24.469Z,5.68
2022-09-12T17:01:00.922Z,1.65
2022-09-12T17:03:29.360Z,4.13
2022-09-12T17:06:00.938Z,3.90
2022-09-12T17:08:30.968Z,2.45
2022-09-12T17:11:02.288Z,2.47
2022-09-12T17:13:52.862Z,2.38
2022-09-12T17:16:20.249Z,5.40
2022-09-12T17:18:48.913Z,5.38
2022-09-12T17:21:17.876Z,2.63
2022-09-12T17:23:48.027Z,2.70
2022-09-12T17:26:16.770Z,2.20
2022-09-12T17:28:45.344Z,3.75
2022-09-12T17:31:14.707Z,2.50
2022-09-12T17:33:43.576Z,3.78
2022-09-12T17:36:15.028Z,2.55
2022-09-12T17:38:43.870Z,2.55
2022-09-12T17:41:16.087Z,2.28
2022-09-12T17:43:46.099Z,3.60
2022-09-12T17:46:14.822Z,5.88
2022-09-12T17:48:43.733Z,3.80
2022-09-12T17:51:13.441Z,3.38
2022-09-12T17:53:41.868Z,3.17
2022-09-12T17:56:10.774Z,2.05
2022-09-12T17:58:40.984Z,2.10
2022-09-12T18:01:27.686Z,4.25
2022-09-12T18:03:56.692Z,4.90
2022-09-12T18:06:25.419Z,3.67
2022-09-12T18:08:53.816Z,3.30
2022-09-12T18:11:22.401Z,3.35
2022-09-12T18:13:52.202Z,3.95
2022-09-12T18:16:20.678Z,2.83
2022-09-12T18:18:51.111Z,2.80
2022-09-12T18:21:19.861Z,3.00
2022-09-12T18:23:48.344Z,3.08
2022-09-12T18:26:16.770Z,2.33
2022-09-12T18:28:45.967Z,3.95
2022-09-12T18:31:17.089Z,3.60
2022-09-12T18:33:46.280Z,4.43
2022-09-12T18:36:16.171Z,3.60
2022-09-12T18:38:44.952Z,3.22
2022-09-12T18:41:15.864Z,2.65
2022-09-12T18:43:44.285Z,2.97
2022-09-12T18:46:14.345Z,4.72
2022-09-12T18:48:44.906Z,2.40
2022-09-12T18:51:14.684Z,4.45
2022-09-12T18:53:43.513Z,4.85
2022-09-12T18:56:12.768Z,3.63
2022-09-12T18:58:42.088Z,4.88
2022-09-12T19:01:11.251Z,2.40
2022-09-12T19:03:39.722Z,3.67
2022-09-12T19:06:11.756Z,3.65
2022-09-12T19:08:40.628Z,3.13
2022-09-12T19:11:09.372Z,2.33
2022-09-12T19:13:38.509Z,3.15
2022-09-12T19:16:10.279Z,2.65
2022-09-12T19:18:38.989Z,6.30
2022-09-12T19:21:07.720Z,4.55
2022-09-12T19:23:37.684Z,4.38
2022-09-12T19:26:07.030Z,2.55
2022-09-12T19:28:35.522Z,2.83
2022-09-12T19:31:06.510Z,2.75
2022-09-12T19:33:35.082Z,4.85
2022-09-12T19:36:04.395Z,3.45
2022-09-12T19:38:33.132Z,2.13
2022-09-12T19:41:04.113Z,2.20
2022-09-12T19:43:32.775Z,5.72
2022-09-12T19:46:01.509Z,2.75
2022-09-12T19:48:30.141Z,2.75
2022-09-12T19:51:00.356Z,2.30
2022-09-12T19:53:29.214Z,4.07
2022-09-12T19:56:00.219Z,2.95
2022-09-12T19:58:30.124Z,3.28
2022-09-12T20:00:58.833Z,4.78
2022-09-12T20:03:27.476Z,4.55
2022-09-12T20:05:55.913Z,3.53
2022-09-12T20:08:24.367Z,2.60
2022-09-12T20:10:56.845Z,4.53
2022-09-12T20:13:25.550Z,4.72
2022-09-12T20:15:55.378Z,2.28
2022-09-12T20:18:23.812Z,2.30
2022-09-12T20:20:52.277Z,3.38
2022-09-12T20:23:20.669Z,4.25
2022-09-12T20:25:49.098Z,3.53
2022-09-12T20:28:17.528Z,3.05
2022-09-12T20:30:45.907Z,4.22
2022-09-12T20:33:15.781Z,2.30
2022-09-12T20:35:44.198Z,3.78
2022-09-12T20:38:13.256Z,2.47
2022-09-12T20:40:41.968Z,3.20
2022-09-12T20:43:10.378Z,2.58
2022-09-12T20:45:42.453Z,3.63
2022-09-12T20:48:10.857Z,2.92
2022-09-12T20:50:40.878Z,4.13
2022-09-12T20:53:09.309Z,2.10
2022-09-12T20:55:37.721Z,4.05
2022-09-12T20:58:06.205Z,5.47
2022-09-12T21:00:34.612Z,2.35
2022-09-12T21:03:03.063Z,2.42
2022-09-12T21:05:31.490Z,2.20
2022-09-12T21:08:01.831Z,2.40
2022-09-12T21:10:30.994Z,2.63
2022-09-12T21:12:59.413Z,2.35
2022-09-12T21:15:27.889Z,2.70
2022-09-12T21:17:56.295Z,3.13
2022-09-12T21:20:24.769Z,2.55
2022-09-12T21:22:53.162Z,2.40
2022-09-12T21:25:22.965Z,2.92
2022-09-12T21:27:51.344Z,3.13
2022-09-12T21:30:19.944Z,2.17
2022-09-12T21:32:48.578Z,2.90
2022-09-12T21:35:17.063Z,2.75
2022-09-12T21:37:45.456Z,2.08
2022-09-12T21:40:14.081Z,2.22
2022-09-12T21:42:44.366Z,4.22
2022-09-12T21:45:12.965Z,2.03
2022-09-12T21:47:41.339Z,2.00
2022-09-12T21:50:10.539Z,2.60
2022-09-12T21:52:38.956Z,2.75
2022-09-12T21:55:07.904Z,3.00
2022-09-12T21:57:37.097Z,2.13
2022-09-12T22:00:07.786Z,2.85
2022-09-12T22:02:36.176Z,1.88
2022-09-12T22:05:04.709Z,2.05
2022-09-12T22:07:33.121Z,3.50
2022-09-12T22:10:01.729Z,2.10
2022-09-12T22:12:30.213Z,2.42
2022-09-12T22:14:58.597Z,2.55
2022-09-12T22:17:28.675Z,3.22
2022-09-12T22:19:57.144Z,3.75
2022-09-12T22:22:42.969Z,2.20
2022-09-12T22:25:12.734Z,2.03
2022-09-12T22:27:41.162Z,2.53
2022-09-12T22:30:10.056Z,2.53
2022-09-12T22:32:39.832Z,2.20
2022-09-12T22:35:08.460Z,3.00
2022-09-12T22:37:36.868Z,2.10
2022-09-12T22:40:05.467Z,2.67
2022-09-12T22:42:33.936Z,2.88
2022-09-12T22:45:02.328Z,2.78
2022-09-12T22:47:31.157Z,4.35
2022-09-12T22:50:00.933Z,3.35
2022-09-12T22:52:29.508Z,3.88
2022-09-12T22:54:59.159Z,4.13
2022-09-12T22:57:27.614Z,2.55
2022-09-12T22:59:56.080Z,1.98
2022-09-12T23:02:24.510Z,2.42
2022-09-12T23:04:53.309Z,3.47
2022-09-12T23:07:23.128Z,4.10
2022-09-12T23:09:51.508Z,1.80
2022-09-12T23:12:19.954Z,5.38
2022-09-12T23:14:48.388Z,1.75
2022-09-12T23:17:16.772Z,2.10
2022-09-12T23:19:45.149Z,3.90
2022-09-12T23:22:13.574Z,2.45
2022-09-12T23:24:43.345Z,3.15
2022-09-12T23:27:11.800Z,2.85
2022-09-12T23:29:40.216Z,2.60
2022-09-12T23:32:08.677Z,3.72
2022-09-12T23:34:37.060Z,3.47
2022-09-12T23:37:05.536Z,2.22
2022-09-12T23:39:34.341Z,3.83
2022-09-12T23:42:04.133Z,5.20
2022-09-12T23:44:32.578Z,4.10
2022-09-12T23:47:00.962Z,3.47
2022-09-12T23:49:29.366Z,2.78
2022-09-12T23:51:57.772Z,2.55
2022-09-12T23:54:26.264Z,2.05
2022-09-12T23:56:54.646Z,3.75
2022-09-12T23:59:24.421Z,5.07
